sensor_id;sensor_type;location;lat;lon;timestamp;temperature;humidity
14884;DHT22;7534;50.762;7.000;2024-03-17T00:01:20;4.90;93.90
14884;DHT22;7534;50.762;7.000;2024-03-17T00:03:46;4.80;94.10
14884;DHT22;7534;50.762;7.000;2024-03-17T00:06:12;4.70;94.20
14884;DHT22;7534;50.762;7.000;2024-03-17T00:08:37;4.60;94.50
14884;DHT22;7534;50.762;7.000;2024-03-17T00:11:03;4.60;94.70
14884;DHT22;7534;50.762;7.000;2024-03-17T00:13:29;4.50;94.70
14884;DHT22;7534;50.762;7.000;2024-03-17T00:15:54;4.50;94.80
14884;DHT22;7534;50.762;7.000;2024-03-17T00:18:20;4.40;94.90
14884;DHT22;7534;50.762;7.000;2024-03-17T00:20:46;4.30;95.00
14884;DHT22;7534;50.762;7.000;2024-03-17T00:23:11;4.30;95.00
14884;DHT22;7534;50.762;7.000;2024-03-17T00:25:38;4.30;95.60
14884;DHT22;7534;50.762;7.000;2024-03-17T00:28:04;4.50;96.20
14884;DHT22;7534;50.762;7.000;2024-03-17T00:30:30;4.50;96.00
14884;DHT22;7534;50.762;7.000;2024-03-17T00:32:57;4.50;95.70
14884;DHT22;7534;50.762;7.000;2024-03-17T00:35:26;4.50;95.30
14884;DHT22;7534;50.762;7.000;2024-03-17T00:37:52;4.40;95.10
14884;DHT22;7534;50.762;7.000;2024-03-17T00:40:19;4.40;95.30
14884;DHT22;7534;50.762;7.000;2024-03-17T00:42:45;4.40;95.70
14884;DHT22;7534;50.762;7.000;2024-03-17T00:45:11;4.40;95.70
14884;DHT22;7534;50.762;7.000;2024-03-17T00:47:37;4.40;95.70
14884;DHT22;7534;50.762;7.000;2024-03-17T00:50:04;4.40;95.80
14884;DHT22;7534;50.762;7.000;2024-03-17T00:52:32;4.40;95.90
14884;DHT22;7534;50.762;7.000;2024-03-17T00:54:58;4.40;95.90
14884;DHT22;7534;50.762;7.000;2024-03-17T00:57:24;4.40;95.80
14884;DHT22;7534;50.762;7.000;2024-03-17T00:59:50;4.40;95.80
14884;DHT22;7534;50.762;7.000;2024-03-17T01:02:17;4.40;95.80
14884;DHT22;7534;50.762;7.000;2024-03-17T01:04:44;4.40;95.40
14884;DHT22;7534;50.762;7.000;2024-03-17T01:07:10;4.40;95.20
14884;DHT22;7534;50.762;7.000;2024-03-17T01:09:37;4.40;95.30
14884;DHT22;7534;50.762;7.000;2024-03-17T01:12:03;4.40;95.30
14884;DHT22;7534;50.762;7.000;2024-03-17T01:14:29;4.40;95.20
14884;DHT22;7534;50.762;7.000;2024-03-17T01:16:56;4.40;94.90
14884;DHT22;7534;50.762;7.000;2024-03-17T01:19:22;4.40;94.40
14884;DHT22;7534;50.762;7.000;2024-03-17T01:21:48;4.30;94.30
14884;DHT22;7534;50.762;7.000;2024-03-17T01:24:14;4.30;94.50
14884;DHT22;7534;50.762;7.000;2024-03-17T01:26:40;4.30;94.60
14884;DHT22;7534;50.762;7.000;2024-03-17T01:29:05;4.30;94.50
14884;DHT22;7534;50.762;7.000;2024-03-17T01:31:34;4.30;94.20
14884;DHT22;7534;50.762;7.000;2024-03-17T01:34:00;4.30;94.10
14884;DHT22;7534;50.762;7.000;2024-03-17T01:36:26;4.30;94.10
14884;DHT22;7534;50.762;7.000;2024-03-17T01:38:52;4.20;94.20
14884;DHT22;7534;50.762;7.000;2024-03-17T01:41:17;4.20;94.30
14884;DHT22;7534;50.762;7.000;2024-03-17T01:43:43;4.10;94.30
14884;DHT22;7534;50.762;7.000;2024-03-17T01:46:15;4.00;94.40
14884;DHT22;7534;50.762;7.000;2024-03-17T01:48:42;4.00;94.60
14884;DHT22;7534;50.762;7.000;2024-03-17T01:51:10;4.00;94.90
14884;DHT22;7534;50.762;7.000;2024-03-17T01:53:37;3.90;95.00
14884;DHT22;7534;50.762;7.000;2024-03-17T01:56:03;3.90;95.20
14884;DHT22;7534;50.762;7.000;2024-03-17T01:58:33;3.80;95.30
14884;DHT22;7534;50.762;7.000;2024-03-17T02:00:59;3.80;95.40
14884;DHT22;7534;50.762;7.000;2024-03-17T02:03:24;3.80;95.50
14884;DHT22;7534;50.762;7.000;2024-03-17T02:05:50;3.70;95.50
14884;DHT22;7534;50.762;7.000;2024-03-17T02:08:16;3.70;95.60
14884;DHT22;7534;50.762;7.000;2024-03-17T02:10:43;3.70;95.70
14884;DHT22;7534;50.762;7.000;2024-03-17T02:13:10;3.60;95.70
14884;DHT22;7534;50.762;7.000;2024-03-17T02:15:35;3.60;95.70
14884;DHT22;7534;50.762;7.000;2024-03-17T02:18:03;3.60;95.90
14884;DHT22;7534;50.762;7.000;2024-03-17T02:20:29;3.50;96.10
14884;DHT22;7534;50.762;7.000;2024-03-17T02:23:13;3.50;96.20
14884;DHT22;7534;50.762;7.000;2024-03-17T02:25:39;3.60;96.50
14884;DHT22;7534;50.762;7.000;2024-03-17T02:28:05;3.60;96.60
14884;DHT22;7534;50.762;7.000;2024-03-17T02:30:31;3.60;96.50
14884;DHT22;7534;50.762;7.000;2024-03-17T02:32:57;3.60;96.20
14884;DHT22;7534;50.762;7.000;2024-03-17T02:35:23;3.50;96.00
14884;DHT22;7534;50.762;7.000;2024-03-17T02:37:49;3.50;95.90
14884;DHT22;7534;50.762;7.000;2024-03-17T02:40:16;3.40;96.00
14884;DHT22;7534;50.762;7.000;2024-03-17T02:42:42;3.40;96.20
14884;DHT22;7534;50.762;7.000;2024-03-17T02:45:10;3.30;96.00
14884;DHT22;7534;50.762;7.000;2024-03-17T02:47:38;3.30;96.10
14884;DHT22;7534;50.762;7.000;2024-03-17T02:50:04;3.20;96.30
14884;DHT22;7534;50.762;7.000;2024-03-17T02:52:30;3.20;96.50
14884;DHT22;7534;50.762;7.000;2024-03-17T02:54:56;3.20;96.60
14884;DHT22;7534;50.762;7.000;2024-03-17T02:57:22;3.20;96.50
14884;DHT22;7534;50.762;7.000;2024-03-17T02:59:55;3.10;96.40
14884;DHT22;7534;50.762;7.000;2024-03-17T03:02:22;3.10;96.50
14884;DHT22;7534;50.762;7.000;2024-03-17T03:04:47;3.00;96.50
14884;DHT22;7534;50.762;7.000;2024-03-17T03:07:13;3.00;96.30
14884;DHT22;7534;50.762;7.000;2024-03-17T03:09:39;2.90;96.10
14884;DHT22;7534;50.762;7.000;2024-03-17T03:12:05;2.80;96.20
14884;DHT22;7534;50.762;7.000;2024-03-17T03:14:33;2.80;96.30
14884;DHT22;7534;50.762;7.000;2024-03-17T03:16:59;2.70;96.30
14884;DHT22;7534;50.762;7.000;2024-03-17T03:19:26;2.60;96.40
14884;DHT22;7534;50.762;7.000;2024-03-17T03:21:53;2.60;96.80
14884;DHT22;7534;50.762;7.000;2024-03-17T03:24:19;2.70;97.40
14884;DHT22;7534;50.762;7.000;2024-03-17T03:26:45;2.80;97.70
14884;DHT22;7534;50.762;7.000;2024-03-17T03:29:11;2.90;97.90
14884;DHT22;7534;50.762;7.000;2024-03-17T03:31:37;2.90;97.50
14884;DHT22;7534;50.762;7.000;2024-03-17T03:34:04;2.80;97.10
14884;DHT22;7534;50.762;7.000;2024-03-17T03:36:33;2.70;96.80
14884;DHT22;7534;50.762;7.000;2024-03-17T03:38:59;2.60;96.60
14884;DHT22;7534;50.762;7.000;2024-03-17T03:41:25;2.50;96.60
14884;DHT22;7534;50.762;7.000;2024-03-17T03:43:51;2.40;97.00
14884;DHT22;7534;50.762;7.000;2024-03-17T03:46:17;2.40;97.40
14884;DHT22;7534;50.762;7.000;2024-03-17T03:48:42;2.40;97.70
14884;DHT22;7534;50.762;7.000;2024-03-17T03:51:09;2.50;98.40
14884;DHT22;7534;50.762;7.000;2024-03-17T03:53:36;2.60;98.70
14884;DHT22;7534;50.762;7.000;2024-03-17T03:56:04;2.70;98.60
14884;DHT22;7534;50.762;7.000;2024-03-17T03:58:34;2.70;98.50
14884;DHT22;7534;50.762;7.000;2024-03-17T04:01:04;2.70;98.40
14884;DHT22;7534;50.762;7.000;2024-03-17T04:03:31;2.70;98.20
14884;DHT22;7534;50.762;7.000;2024-03-17T04:06:06;2.60;98.10
14884;DHT22;7534;50.762;7.000;2024-03-17T04:08:34;2.60;98.30
14884;DHT22;7534;50.762;7.000;2024-03-17T04:11:00;2.50;98.30
14884;DHT22;7534;50.762;7.000;2024-03-17T04:13:30;2.50;98.20
14884;DHT22;7534;50.762;7.000;2024-03-17T04:15:56;2.40;98.20
14884;DHT22;7534;50.762;7.000;2024-03-17T04:18:24;2.40;98.10
14884;DHT22;7534;50.762;7.000;2024-03-17T04:20:53;2.30;98.20
14884;DHT22;7534;50.762;7.000;2024-03-17T04:23:20;2.30;98.30
14884;DHT22;7534;50.762;7.000;2024-03-17T04:25:47;2.30;98.20
14884;DHT22;7534;50.762;7.000;2024-03-17T04:28:13;2.30;98.40
14884;DHT22;7534;50.762;7.000;2024-03-17T04:30:40;2.40;98.60
14884;DHT22;7534;50.762;7.000;2024-03-17T04:33:05;2.50;98.80
14884;DHT22;7534;50.762;7.000;2024-03-17T04:35:35;2.60;98.90
14884;DHT22;7534;50.762;7.000;2024-03-17T04:38:02;2.70;99.00
14884;DHT22;7534;50.762;7.000;2024-03-17T04:40:27;2.80;99.10
14884;DHT22;7534;50.762;7.000;2024-03-17T04:42:53;2.90;99.30
14884;DHT22;7534;50.762;7.000;2024-03-17T04:45:19;3.00;99.50
14884;DHT22;7534;50.762;7.000;2024-03-17T04:47:44;3.10;99.50
14884;DHT22;7534;50.762;7.000;2024-03-17T04:50:10;3.10;99.40
14884;DHT22;7534;50.762;7.000;2024-03-17T04:52:37;3.20;99.40
14884;DHT22;7534;50.762;7.000;2024-03-17T04:55:04;3.30;99.40
14884;DHT22;7534;50.762;7.000;2024-03-17T04:57:29;3.40;99.50
14884;DHT22;7534;50.762;7.000;2024-03-17T04:59:55;3.60;99.40
14884;DHT22;7534;50.762;7.000;2024-03-17T05:02:21;3.70;98.90
14884;DHT22;7534;50.762;7.000;2024-03-17T05:04:48;3.80;98.10
14884;DHT22;7534;50.762;7.000;2024-03-17T05:07:14;3.90;96.80
14884;DHT22;7534;50.762;7.000;2024-03-17T05:09:40;4.00;95.90
14884;DHT22;7534;50.762;7.000;2024-03-17T05:12:06;4.10;95.10
14884;DHT22;7534;50.762;7.000;2024-03-17T05:14:32;4.10;93.80
14884;DHT22;7534;50.762;7.000;2024-03-17T05:16:57;4.20;92.70
14884;DHT22;7534;50.762;7.000;2024-03-17T05:19:23;4.20;92.00
14884;DHT22;7534;50.762;7.000;2024-03-17T05:21:49;4.30;91.20
14884;DHT22;7534;50.762;7.000;2024-03-17T05:24:15;4.10;91.30
14884;DHT22;7534;50.762;7.000;2024-03-17T05:26:41;4.10;91.40
14884;DHT22;7534;50.762;7.000;2024-03-17T05:29:09;4.00;91.50
14884;DHT22;7534;50.762;7.000;2024-03-17T05:31:35;4.00;91.60
14884;DHT22;7534;50.762;7.000;2024-03-17T05:34:01;4.00;91.80
14884;DHT22;7534;50.762;7.000;2024-03-17T05:36:26;4.00;91.60
14884;DHT22;7534;50.762;7.000;2024-03-17T05:38:52;4.00;91.30
14884;DHT22;7534;50.762;7.000;2024-03-17T05:41:18;3.90;91.50
14884;DHT22;7534;50.762;7.000;2024-03-17T05:43:43;3.80;91.60
14884;DHT22;7534;50.762;7.000;2024-03-17T05:46:11;3.70;91.70
14884;DHT22;7534;50.762;7.000;2024-03-17T05:48:39;3.60;91.90
14884;DHT22;7534;50.762;7.000;2024-03-17T05:51:06;3.50;92.70
14884;DHT22;7534;50.762;7.000;2024-03-17T05:53:36;3.50;93.30
14884;DHT22;7534;50.762;7.000;2024-03-17T05:56:06;3.50;93.90
14884;DHT22;7534;50.762;7.000;2024-03-17T05:58:35;3.60;93.90
14884;DHT22;7534;50.762;7.000;2024-03-17T06:01:03;3.60;93.80
14884;DHT22;7534;50.762;7.000;2024-03-17T06:03:30;3.60;94.00
14884;DHT22;7534;50.762;7.000;2024-03-17T06:05:58;3.70;94.20
14884;DHT22;7534;50.762;7.000;2024-03-17T06:08:25;3.80;93.80
14884;DHT22;7534;50.762;7.000;2024-03-17T06:10:50;3.90;93.30
14884;DHT22;7534;50.762;7.000;2024-03-17T06:13:16;4.00;92.90
14884;DHT22;7534;50.762;7.000;2024-03-17T06:15:45;3.90;92.70
14884;DHT22;7534;50.762;7.000;2024-03-17T06:18:13;4.00;92.80
14884;DHT22;7534;50.762;7.000;2024-03-17T06:20:40;4.00;92.90
14884;DHT22;7534;50.762;7.000;2024-03-17T06:23:15;4.10;93.00
14884;DHT22;7534;50.762;7.000;2024-03-17T06:25:46;4.20;92.90
14884;DHT22;7534;50.762;7.000;2024-03-17T06:28:15;4.30;91.00
14884;DHT22;7534;50.762;7.000;2024-03-17T06:30:46;4.40;90.20
14884;DHT22;7534;50.762;7.000;2024-03-17T06:33:20;4.60;89.40
14884;DHT22;7534;50.762;7.000;2024-03-17T06:35:46;4.80;88.40
14884;DHT22;7534;50.762;7.000;2024-03-17T06:38:15;5.10;88.00
14884;DHT22;7534;50.762;7.000;2024-03-17T06:40:41;5.60;87.80
14884;DHT22;7534;50.762;7.000;2024-03-17T06:43:07;7.50;82.30
14884;DHT22;7534;50.762;7.000;2024-03-17T06:45:33;9.90;72.40
14884;DHT22;7534;50.762;7.000;2024-03-17T06:47:59;12.10;63.70
14884;DHT22;7534;50.762;7.000;2024-03-17T06:50:25;14.00;57.80
14884;DHT22;7534;50.762;7.000;2024-03-17T06:52:50;15.30;51.00
14884;DHT22;7534;50.762;7.000;2024-03-17T06:55:19;16.50;46.50
14884;DHT22;7534;50.762;7.000;2024-03-17T06:57:46;16.10;45.70
14884;DHT22;7534;50.762;7.000;2024-03-17T07:00:13;14.70;47.90
14884;DHT22;7534;50.762;7.000;2024-03-17T07:02:41;13.30;51.90
14884;DHT22;7534;50.762;7.000;2024-03-17T07:05:14;11.60;56.70
14884;DHT22;7534;50.762;7.000;2024-03-17T07:07:43;11.00;59.40
14884;DHT22;7534;50.762;7.000;2024-03-17T07:10:10;11.60;58.70
14884;DHT22;7534;50.762;7.000;2024-03-17T07:12:37;12.50;56.20
14884;DHT22;7534;50.762;7.000;2024-03-17T07:15:04;14.10;52.10
14884;DHT22;7534;50.762;7.000;2024-03-17T07:17:30;15.70;48.10
14884;DHT22;7534;50.762;7.000;2024-03-17T07:19:56;16.40;45.80
14884;DHT22;7534;50.762;7.000;2024-03-17T07:22:22;16.90;44.70
14884;DHT22;7534;50.762;7.000;2024-03-17T07:24:48;18.10;42.10
14884;DHT22;7534;50.762;7.000;2024-03-17T07:27:17;18.40;39.70
14884;DHT22;7534;50.762;7.000;2024-03-17T07:29:43;18.20;40.60
14884;DHT22;7534;50.762;7.000;2024-03-17T07:32:08;18.40;39.50
14884;DHT22;7534;50.762;7.000;2024-03-17T07:34:34;18.50;40.70
14884;DHT22;7534;50.762;7.000;2024-03-17T07:37:00;19.20;39.00
14884;DHT22;7534;50.762;7.000;2024-03-17T07:39:30;19.80;38.60
14884;DHT22;7534;50.762;7.000;2024-03-17T07:41:58;20.40;37.00
14884;DHT22;7534;50.762;7.000;2024-03-17T07:44:25;20.80;36.70
14884;DHT22;7534;50.762;7.000;2024-03-17T07:46:51;21.30;35.10
14884;DHT22;7534;50.762;7.000;2024-03-17T07:49:19;21.40;34.80
14884;DHT22;7534;50.762;7.000;2024-03-17T07:51:45;20.80;35.60
14884;DHT22;7534;50.762;7.000;2024-03-17T07:54:10;20.80;35.50
14884;DHT22;7534;50.762;7.000;2024-03-17T07:56:38;20.10;36.40
14884;DHT22;7534;50.762;7.000;2024-03-17T07:59:04;18.00;40.20
14884;DHT22;7534;50.762;7.000;2024-03-17T08:01:37;16.20;44.50
14884;DHT22;7534;50.762;7.000;2024-03-17T08:04:03;15.80;46.30
14884;DHT22;7534;50.762;7.000;2024-03-17T08:06:29;15.80;45.90
14884;DHT22;7534;50.762;7.000;2024-03-17T08:08:54;15.90;45.30
14884;DHT22;7534;50.762;7.000;2024-03-17T08:11:20;15.90;45.80
14884;DHT22;7534;50.762;7.000;2024-03-17T08:13:46;15.30;47.30
14884;DHT22;7534;50.762;7.000;2024-03-17T08:16:12;15.70;46.50
14884;DHT22;7534;50.762;7.000;2024-03-17T08:18:38;15.80;46.80
14884;DHT22;7534;50.762;7.000;2024-03-17T08:21:05;16.90;43.60
14884;DHT22;7534;50.762;7.000;2024-03-17T08:23:35;17.20;42.80
14884;DHT22;7534;50.762;7.000;2024-03-17T08:26:06;17.70;42.20
14884;DHT22;7534;50.762;7.000;2024-03-17T08:28:32;19.00;39.40
14884;DHT22;7534;50.762;7.000;2024-03-17T08:31:00;18.90;39.20
14884;DHT22;7534;50.762;7.000;2024-03-17T08:33:26;18.40;39.60
14884;DHT22;7534;50.762;7.000;2024-03-17T08:38:24;15.70;45.40
14884;DHT22;7534;50.762;7.000;2024-03-17T08:40:51;14.70;47.40
14884;DHT22;7534;50.762;7.000;2024-03-17T08:43:18;13.90;49.80
14884;DHT22;7534;50.762;7.000;2024-03-17T08:45:45;13.60;52.20
14884;DHT22;7534;50.762;7.000;2024-03-17T08:48:11;14.10;51.50
14884;DHT22;7534;50.762;7.000;2024-03-17T08:50:37;15.00;49.50
14884;DHT22;7534;50.762;7.000;2024-03-17T08:53:03;16.30;46.80
14884;DHT22;7534;50.762;7.000;2024-03-17T08:55:28;17.30;44.40
14884;DHT22;7534;50.762;7.000;2024-03-17T08:57:54;18.40;41.50
14884;DHT22;7534;50.762;7.000;2024-03-17T09:00:20;20.00;38.90
14884;DHT22;7534;50.762;7.000;2024-03-17T09:02:45;21.00;36.30
14884;DHT22;7534;50.762;7.000;2024-03-17T09:05:11;21.00;35.90
14884;DHT22;7534;50.762;7.000;2024-03-17T09:07:40;19.60;37.60
14884;DHT22;7534;50.762;7.000;2024-03-17T09:10:06;19.20;38.90
14884;DHT22;7534;50.762;7.000;2024-03-17T09:12:31;19.50;38.40
14884;DHT22;7534;50.762;7.000;2024-03-17T09:14:58;19.10;39.20
14884;DHT22;7534;50.762;7.000;2024-03-17T09:17:24;18.80;39.60
14884;DHT22;7534;50.762;7.000;2024-03-17T09:19:49;17.90;41.00
14884;DHT22;7534;50.762;7.000;2024-03-17T09:22:15;18.30;40.70
14884;DHT22;7534;50.762;7.000;2024-03-17T09:24:41;19.20;39.10
14884;DHT22;7534;50.762;7.000;2024-03-17T09:27:07;18.90;38.90
14884;DHT22;7534;50.762;7.000;2024-03-17T09:29:33;18.60;39.40
14884;DHT22;7534;50.762;7.000;2024-03-17T09:31:59;18.20;39.80
14884;DHT22;7534;50.762;7.000;2024-03-17T09:34:25;17.60;41.10
14884;DHT22;7534;50.762;7.000;2024-03-17T09:36:51;17.30;42.20
14884;DHT22;7534;50.762;7.000;2024-03-17T09:39:16;17.30;42.20
14884;DHT22;7534;50.762;7.000;2024-03-17T09:41:46;17.90;41.60
14884;DHT22;7534;50.762;7.000;2024-03-17T09:44:12;19.40;39.00
14884;DHT22;7534;50.762;7.000;2024-03-17T09:46:41;21.00;36.50
14884;DHT22;7534;50.762;7.000;2024-03-17T09:49:16;21.90;34.90
14884;DHT22;7534;50.762;7.000;2024-03-17T09:51:43;22.60;33.10
14884;DHT22;7534;50.762;7.000;2024-03-17T09:54:19;21.70;34.70
14884;DHT22;7534;50.762;7.000;2024-03-17T09:56:45;20.50;36.00
14884;DHT22;7534;50.762;7.000;2024-03-17T09:59:11;19.30;38.60
14884;DHT22;7534;50.762;7.000;2024-03-17T10:01:37;18.70;39.60
14884;DHT22;7534;50.762;7.000;2024-03-17T10:04:03;18.20;41.00
14884;DHT22;7534;50.762;7.000;2024-03-17T10:06:30;17.50;42.70
14884;DHT22;7534;50.762;7.000;2024-03-17T10:08:58;16.90;44.10
14884;DHT22;7534;50.762;7.000;2024-03-17T10:11:36;16.50;45.10
14884;DHT22;7534;50.762;7.000;2024-03-17T10:14:07;16.50;45.80
14884;DHT22;7534;50.762;7.000;2024-03-17T10:16:35;16.50;46.40
14884;DHT22;7534;50.762;7.000;2024-03-17T10:21:37;17.40;44.30
14884;DHT22;7534;50.762;7.000;2024-03-17T10:24:13;18.20;42.90
14884;DHT22;7534;50.762;7.000;2024-03-17T10:26:57;18.60;41.50
14884;DHT22;7534;50.762;7.000;2024-03-17T10:29:26;18.70;41.30
14884;DHT22;7534;50.762;7.000;2024-03-17T10:31:54;18.60;41.40
14884;DHT22;7534;50.762;7.000;2024-03-17T10:34:22;18.30;41.90
14884;DHT22;7534;50.762;7.000;2024-03-17T10:37:20;17.80;43.20
14884;DHT22;7534;50.762;7.000;2024-03-17T10:39:54;17.40;43.90
14884;DHT22;7534;50.762;7.000;2024-03-17T10:42:27;17.00;44.90
14884;DHT22;7534;50.762;7.000;2024-03-17T10:44:54;17.10;45.60
14884;DHT22;7534;50.762;7.000;2024-03-17T10:47:22;17.40;44.90
14884;DHT22;7534;50.762;7.000;2024-03-17T10:49:54;17.40;45.20
14884;DHT22;7534;50.762;7.000;2024-03-17T10:52:21;17.50;44.80
14884;DHT22;7534;50.762;7.000;2024-03-17T10:54:50;17.60;44.30
14884;DHT22;7534;50.762;7.000;2024-03-17T11:00:01;17.60;44.80
14884;DHT22;7534;50.762;7.000;2024-03-17T11:02:31;17.40;44.90
14884;DHT22;7534;50.762;7.000;2024-03-17T11:05:13;17.50;45.50
14884;DHT22;7534;50.762;7.000;2024-03-17T11:07:42;17.70;45.00
14884;DHT22;7534;50.762;7.000;2024-03-17T11:10:16;17.40;45.60
14884;DHT22;7534;50.762;7.000;2024-03-17T11:12:53;17.30;46.50
14884;DHT22;7534;50.762;7.000;2024-03-17T11:20:41;17.20;46.40
14884;DHT22;7534;50.762;7.000;2024-03-17T11:23:08;16.80;47.20
14884;DHT22;7534;50.762;7.000;2024-03-17T11:25:38;16.60;48.30
14884;DHT22;7534;50.762;7.000;2024-03-17T11:28:07;16.80;48.80
14884;DHT22;7534;50.762;7.000;2024-03-17T11:39:06;17.90;45.50
14884;DHT22;7534;50.762;7.000;2024-03-17T11:41:53;17.80;46.00
14884;DHT22;7534;50.762;7.000;2024-03-17T11:46:56;16.90;48.10
14884;DHT22;7534;50.762;7.000;2024-03-17T11:51:53;16.30;50.00
14884;DHT22;7534;50.762;7.000;2024-03-17T11:54:25;16.40;49.90
14884;DHT22;7534;50.762;7.000;2024-03-17T11:56:56;16.40;49.90
14884;DHT22;7534;50.762;7.000;2024-03-17T11:59:26;16.60;49.80
14884;DHT22;7534;50.762;7.000;2024-03-17T12:01:52;16.70;49.70
14884;DHT22;7534;50.762;7.000;2024-03-17T12:04:21;16.80;50.10
14884;DHT22;7534;50.762;7.000;2024-03-17T12:06:50;17.30;48.20
14884;DHT22;7534;50.762;7.000;2024-03-17T12:09:27;17.50;47.90
14884;DHT22;7534;50.762;7.000;2024-03-17T12:12:00;17.90;47.30
14884;DHT22;7534;50.762;7.000;2024-03-17T12:14:25;18.30;45.70
14884;DHT22;7534;50.762;7.000;2024-03-17T12:16:55;18.30;45.90
14884;DHT22;7534;50.762;7.000;2024-03-17T12:19:22;18.60;45.10
14884;DHT22;7534;50.762;7.000;2024-03-17T12:21:52;18.70;44.30
14884;DHT22;7534;50.762;7.000;2024-03-17T12:24:34;18.30;44.80
14884;DHT22;7534;50.762;7.000;2024-03-17T12:27:05;18.20;45.50
14884;DHT22;7534;50.762;7.000;2024-03-17T12:29:33;18.00;46.20
14884;DHT22;7534;50.762;7.000;2024-03-17T12:32:03;18.00;46.40
14884;DHT22;7534;50.762;7.000;2024-03-17T12:34:32;18.10;45.80
14884;DHT22;7534;50.762;7.000;2024-03-17T12:37:00;18.10;45.90
14884;DHT22;7534;50.762;7.000;2024-03-17T12:39:30;17.70;47.00
14884;DHT22;7534;50.762;7.000;2024-03-17T12:44:55;17.80;46.70
14884;DHT22;7534;50.762;7.000;2024-03-17T12:47:23;17.70;46.70
14884;DHT22;7534;50.762;7.000;2024-03-17T12:49:52;17.60;47.30
14884;DHT22;7534;50.762;7.000;2024-03-17T12:52:21;17.70;47.00
14884;DHT22;7534;50.762;7.000;2024-03-17T12:55:09;17.70;47.20
14884;DHT22;7534;50.762;7.000;2024-03-17T13:01:06;17.30;47.70
14884;DHT22;7534;50.762;7.000;2024-03-17T13:03:33;17.00;48.70
14884;DHT22;7534;50.762;7.000;2024-03-17T13:06:01;16.70;49.30
14884;DHT22;7534;50.762;7.000;2024-03-17T13:08:33;16.40;50.50
14884;DHT22;7534;50.762;7.000;2024-03-17T13:11:00;16.60;50.10
14884;DHT22;7534;50.762;7.000;2024-03-17T13:13:26;16.70;49.70
14884;DHT22;7534;50.762;7.000;2024-03-17T13:15:52;16.60;49.70
14884;DHT22;7534;50.762;7.000;2024-03-17T13:18:19;16.40;50.40
14884;DHT22;7534;50.762;7.000;2024-03-17T13:20:46;16.40;50.70
14884;DHT22;7534;50.762;7.000;2024-03-17T13:23:12;16.30;50.90
14884;DHT22;7534;50.762;7.000;2024-03-17T13:25:38;16.20;51.40
14884;DHT22;7534;50.762;7.000;2024-03-17T13:28:05;16.10;51.60
14884;DHT22;7534;50.762;7.000;2024-03-17T13:30:33;16.00;52.20
14884;DHT22;7534;50.762;7.000;2024-03-17T13:33:02;15.80;52.60
14884;DHT22;7534;50.762;7.000;2024-03-17T13:35:33;15.80;52.90
14884;DHT22;7534;50.762;7.000;2024-03-17T13:38:00;16.00;52.60
14884;DHT22;7534;50.762;7.000;2024-03-17T13:40:28;16.10;52.00
14884;DHT22;7534;50.762;7.000;2024-03-17T13:42:55;16.10;51.80
14884;DHT22;7534;50.762;7.000;2024-03-17T13:45:24;16.10;51.90
14884;DHT22;7534;50.762;7.000;2024-03-17T13:48:00;16.00;51.70
14884;DHT22;7534;50.762;7.000;2024-03-17T13:50:29;16.00;51.90
14884;DHT22;7534;50.762;7.000;2024-03-17T13:52:55;16.00;51.80
14884;DHT22;7534;50.762;7.000;2024-03-17T13:55:22;16.10;52.00
14884;DHT22;7534;50.762;7.000;2024-03-17T13:57:57;15.90;52.60
14884;DHT22;7534;50.762;7.000;2024-03-17T14:00:26;16.00;52.30
14884;DHT22;7534;50.762;7.000;2024-03-17T14:02:54;16.10;52.20
14884;DHT22;7534;50.762;7.000;2024-03-17T14:05:22;16.00;52.10
14884;DHT22;7534;50.762;7.000;2024-03-17T14:07:48;15.90;52.00
14884;DHT22;7534;50.762;7.000;2024-03-17T14:10:17;15.90;52.50
14884;DHT22;7534;50.762;7.000;2024-03-17T14:12:45;16.00;52.60
14884;DHT22;7534;50.762;7.000;2024-03-17T14:15:12;16.10;51.90
14884;DHT22;7534;50.762;7.000;2024-03-17T14:17:40;16.20;51.70
14884;DHT22;7534;50.762;7.000;2024-03-17T14:20:12;16.20;51.30
14884;DHT22;7534;50.762;7.000;2024-03-17T14:22:40;16.30;51.40
14884;DHT22;7534;50.762;7.000;2024-03-17T14:25:08;16.50;51.30
14884;DHT22;7534;50.762;7.000;2024-03-17T14:27:36;16.70;50.50
14884;DHT22;7534;50.762;7.000;2024-03-17T14:30:02;16.80;49.50
14884;DHT22;7534;50.762;7.000;2024-03-17T14:32:29;16.80;49.30
14884;DHT22;7534;50.762;7.000;2024-03-17T14:34:57;16.80;49.40
14884;DHT22;7534;50.762;7.000;2024-03-17T14:37:22;16.70;50.10
14884;DHT22;7534;50.762;7.000;2024-03-17T14:39:49;16.80;49.40
14884;DHT22;7534;50.762;7.000;2024-03-17T14:42:16;16.70;49.00
14884;DHT22;7534;50.762;7.000;2024-03-17T14:44:42;16.80;49.10
14884;DHT22;7534;50.762;7.000;2024-03-17T14:47:08;17.00;48.80
14884;DHT22;7534;50.762;7.000;2024-03-17T14:49:35;17.20;48.60
14884;DHT22;7534;50.762;7.000;2024-03-17T14:52:01;17.40;48.40
14884;DHT22;7534;50.762;7.000;2024-03-17T14:54:27;17.80;47.80
14884;DHT22;7534;50.762;7.000;2024-03-17T14:56:52;18.10;46.80
14884;DHT22;7534;50.762;7.000;2024-03-17T14:59:21;18.20;46.50
14884;DHT22;7534;50.762;7.000;2024-03-17T15:01:47;18.30;45.90
14884;DHT22;7534;50.762;7.000;2024-03-17T15:04:13;18.00;45.90
14884;DHT22;7534;50.762;7.000;2024-03-17T15:06:40;17.80;47.20
14884;DHT22;7534;50.762;7.000;2024-03-17T15:09:06;17.80;47.20
14884;DHT22;7534;50.762;7.000;2024-03-17T15:11:33;17.80;47.10
14884;DHT22;7534;50.762;7.000;2024-03-17T15:13:59;17.90;47.00
14884;DHT22;7534;50.762;7.000;2024-03-17T15:16:24;17.90;47.10
14884;DHT22;7534;50.762;7.000;2024-03-17T15:18:50;17.80;47.50
14884;DHT22;7534;50.762;7.000;2024-03-17T15:21:16;17.30;48.60
14884;DHT22;7534;50.762;7.000;2024-03-17T15:23:42;17.00;49.30
14884;DHT22;7534;50.762;7.000;2024-03-17T15:26:07;16.70;50.40
14884;DHT22;7534;50.762;7.000;2024-03-17T15:28:38;16.20;51.90
14884;DHT22;7534;50.762;7.000;2024-03-17T15:31:11;16.00;52.70
14884;DHT22;7534;50.762;7.000;2024-03-17T15:33:38;15.80;53.80
14884;DHT22;7534;50.762;7.000;2024-03-17T15:36:07;15.60;54.80
14884;DHT22;7534;50.762;7.000;2024-03-17T15:38:37;15.40;55.20
14884;DHT22;7534;50.762;7.000;2024-03-17T15:41:07;15.20;56.30
14884;DHT22;7534;50.762;7.000;2024-03-17T15:43:40;15.10;57.20
14884;DHT22;7534;50.762;7.000;2024-03-17T15:46:14;15.10;57.30
14884;DHT22;7534;50.762;7.000;2024-03-17T15:48:42;15.10;57.50
14884;DHT22;7534;50.762;7.000;2024-03-17T15:51:08;15.20;57.70
14884;DHT22;7534;50.762;7.000;2024-03-17T15:53:33;15.30;57.80
14884;DHT22;7534;50.762;7.000;2024-03-17T15:56:01;15.30;56.90
14884;DHT22;7534;50.762;7.000;2024-03-17T15:58:29;15.30;57.00
14884;DHT22;7534;50.762;7.000;2024-03-17T16:00:56;15.30;56.70
14884;DHT22;7534;50.762;7.000;2024-03-17T16:03:30;15.20;57.40
14884;DHT22;7534;50.762;7.000;2024-03-17T16:06:01;15.20;57.40
14884;DHT22;7534;50.762;7.000;2024-03-17T16:08:28;15.20;56.90
14884;DHT22;7534;50.762;7.000;2024-03-17T16:10:59;15.20;57.00
14884;DHT22;7534;50.762;7.000;2024-03-17T16:13:26;15.30;56.90
14884;DHT22;7534;50.762;7.000;2024-03-17T16:15:56;15.40;56.70
14884;DHT22;7534;50.762;7.000;2024-03-17T16:18:23;15.40;56.60
14884;DHT22;7534;50.762;7.000;2024-03-17T16:21:16;15.50;56.10
14884;DHT22;7534;50.762;7.000;2024-03-17T16:23:54;15.60;56.10
14884;DHT22;7534;50.762;7.000;2024-03-17T16:26:24;15.60;56.00
14884;DHT22;7534;50.762;7.000;2024-03-17T16:28:50;15.60;55.80